sensor_id;sensor_type;location;lat;lon;timestamp;P1;durP1;ratioP1;P2;durP2;ratioP2
47021;SDS011;32779;52.264;6.154;2023-04-09T00:02:14;53.03;;;31.15;;
47021;SDS011;32779;52.264;6.154;2023-04-09T00:04:40;52.47;;;31.92;;
47021;SDS011;32779;52.264;6.154;2023-04-09T00:07:06;53.35;;;31.85;;
47021;SDS011;32779;52.264;6.154;2023-04-09T00:09:31;50.80;;;31.00;;
47021;SDS011;32779;52.264;6.154;2023-04-09T00:11:57;52.83;;;31.17;;
47021;SDS011;32779;52.264;6.154;2023-04-09T00:14:23;52.60;;;31.45;;
47021;SDS011;32779;52.264;6.154;2023-04-09T00:16:48;52.38;;;32.85;;
47021;SDS011;32779;52.264;6.154;2023-04-09T00:19:14;54.80;;;31.88;;
47021;SDS011;32779;52.264;6.154;2023-04-09T00:24:06;55.00;;;31.70;;
47021;SDS011;32779;52.264;6.154;2023-04-09T00:26:31;51.55;;;31.65;;
47021;SDS011;32779;52.264;6.154;2023-04-09T00:28:57;50.13;;;31.10;;
47021;SDS011;32779;52.264;6.154;2023-04-09T00:31:23;48.60;;;29.95;;
47021;SDS011;32779;52.264;6.154;2023-04-09T00:33:48;49.17;;;30.27;;
47021;SDS011;32779;52.264;6.154;2023-04-09T00:36:14;50.20;;;30.35;;
47021;SDS011;32779;52.264;6.154;2023-04-09T00:38:39;46.25;;;29.77;;
47021;SDS011;32779;52.264;6.154;2023-04-09T00:41:05;50.55;;;30.70;;
47021;SDS011;32779;52.264;6.154;2023-04-09T00:43:32;46.90;;;30.60;;
47021;SDS011;32779;52.264;6.154;2023-04-09T00:45:57;46.28;;;29.25;;
47021;SDS011;32779;52.264;6.154;2023-04-09T00:48:24;48.85;;;30.52;;
47021;SDS011;32779;52.264;6.154;2023-04-09T00:53:16;43.58;;;28.77;;
47021;SDS011;32779;52.264;6.154;2023-04-09T00:58:08;44.47;;;29.00;;
47021;SDS011;32779;52.264;6.154;2023-04-09T01:00:33;43.50;;;28.33;;
47021;SDS011;32779;52.264;6.154;2023-04-09T01:02:59;47.33;;;27.85;;
47021;SDS011;32779;52.264;6.154;2023-04-09T01:08:18;45.80;;;28.20;;
47021;SDS011;32779;52.264;6.154;2023-04-09T01:11:01;44.55;;;27.33;;
47021;SDS011;32779;52.264;6.154;2023-04-09T01:13:54;42.85;;;28.58;;
47021;SDS011;32779;52.264;6.154;2023-04-09T01:16:28;43.95;;;28.05;;
47021;SDS011;32779;52.264;6.154;2023-04-09T01:27:02;42.90;;;27.77;;
47021;SDS011;32779;52.264;6.154;2023-04-09T01:29:36;41.72;;;26.80;;
47021;SDS011;32779;52.264;6.154;2023-04-09T01:32:06;48.38;;;28.30;;
47021;SDS011;32779;52.264;6.154;2023-04-09T01:34:32;47.10;;;27.83;;
47021;SDS011;32779;52.264;6.154;2023-04-09T01:36:59;47.60;;;26.98;;
47021;SDS011;32779;52.264;6.154;2023-04-09T01:39:27;47.65;;;28.20;;
47021;SDS011;32779;52.264;6.154;2023-04-09T01:41:53;43.10;;;27.42;;
47021;SDS011;32779;52.264;6.154;2023-04-09T01:44:20;46.38;;;28.05;;
47021;SDS011;32779;52.264;6.154;2023-04-09T01:46:47;43.30;;;27.27;;
47021;SDS011;32779;52.264;6.154;2023-04-09T01:49:14;46.83;;;28.02;;
47021;SDS011;32779;52.264;6.154;2023-04-09T01:51:41;45.33;;;27.45;;
47021;SDS011;32779;52.264;6.154;2023-04-09T01:56:42;46.10;;;26.75;;
47021;SDS011;32779;52.264;6.154;2023-04-09T01:59:09;46.25;;;27.38;;
47021;SDS011;32779;52.264;6.154;2023-04-09T02:01:56;44.00;;;27.33;;
47021;SDS011;32779;52.264;6.154;2023-04-09T02:04:31;45.10;;;26.70;;
47021;SDS011;32779;52.264;6.154;2023-04-09T02:07:19;44.65;;;27.27;;
47021;SDS011;32779;52.264;6.154;2023-04-09T02:09:50;40.90;;;26.98;;
47021;SDS011;32779;52.264;6.154;2023-04-09T02:12:18;41.40;;;26.70;;
47021;SDS011;32779;52.264;6.154;2023-04-09T02:14:45;44.65;;;28.95;;
47021;SDS011;32779;52.264;6.154;2023-04-09T02:17:15;45.22;;;27.20;;
47021;SDS011;32779;52.264;6.154;2023-04-09T02:19:41;44.35;;;26.90;;
47021;SDS011;32779;52.264;6.154;2023-04-09T02:22:11;40.70;;;26.75;;
47021;SDS011;32779;52.264;6.154;2023-04-09T02:24:38;42.22;;;26.63;;
47021;SDS011;32779;52.264;6.154;2023-04-09T02:27:07;40.25;;;26.02;;
47021;SDS011;32779;52.264;6.154;2023-04-09T02:29:32;38.80;;;25.33;;
47021;SDS011;32779;52.264;6.154;2023-04-09T02:31:58;40.03;;;25.88;;
47021;SDS011;32779;52.264;6.154;2023-04-09T02:34:24;43.72;;;25.98;;
47021;SDS011;32779;52.264;6.154;2023-04-09T02:36:50;48.22;;;26.95;;
47021;SDS011;32779;52.264;6.154;2023-04-09T02:39:15;45.35;;;27.52;;
47021;SDS011;32779;52.264;6.154;2023-04-09T02:41:41;40.55;;;25.45;;
47021;SDS011;32779;52.264;6.154;2023-04-09T02:44:07;42.10;;;26.90;;
47021;SDS011;32779;52.264;6.154;2023-04-09T02:46:32;40.67;;;26.48;;
47021;SDS011;32779;52.264;6.154;2023-04-09T02:48:58;44.08;;;28.45;;
47021;SDS011;32779;52.264;6.154;2023-04-09T02:51:23;43.13;;;26.83;;
47021;SDS011;32779;52.264;6.154;2023-04-09T02:53:49;46.40;;;27.38;;
47021;SDS011;32779;52.264;6.154;2023-04-09T02:56:14;44.15;;;27.70;;
47021;SDS011;32779;52.264;6.154;2023-04-09T02:58:40;45.75;;;26.38;;
47021;SDS011;32779;52.264;6.154;2023-04-09T03:01:06;41.33;;;26.35;;
47021;SDS011;32779;52.264;6.154;2023-04-09T03:03:31;41.40;;;26.48;;
47021;SDS011;32779;52.264;6.154;2023-04-09T03:05:57;41.75;;;25.75;;
47021;SDS011;32779;52.264;6.154;2023-04-09T03:08:22;40.97;;;26.45;;
47021;SDS011;32779;52.264;6.154;2023-04-09T03:10:48;37.60;;;24.83;;
47021;SDS011;32779;52.264;6.154;2023-04-09T03:13:13;41.63;;;25.63;;
47021;SDS011;32779;52.264;6.154;2023-04-09T03:15:39;40.22;;;26.00;;
47021;SDS011;32779;52.264;6.154;2023-04-09T03:18:05;44.50;;;26.42;;
47021;SDS011;32779;52.264;6.154;2023-04-09T03:20:30;41.92;;;25.75;;
47021;SDS011;32779;52.264;6.154;2023-04-09T03:22:56;41.42;;;26.67;;
47021;SDS011;32779;52.264;6.154;2023-04-09T03:25:22;41.00;;;26.67;;
47021;SDS011;32779;52.264;6.154;2023-04-09T03:27:47;38.92;;;26.25;;
47021;SDS011;32779;52.264;6.154;2023-04-09T03:30:13;41.90;;;26.27;;
47021;SDS011;32779;52.264;6.154;2023-04-09T03:32:38;36.45;;;25.02;;
47021;SDS011;32779;52.264;6.154;2023-04-09T03:35:04;39.38;;;24.98;;
47021;SDS011;32779;52.264;6.154;2023-04-09T03:37:30;42.70;;;25.30;;
47021;SDS011;32779;52.264;6.154;2023-04-09T03:39:55;40.00;;;25.48;;
47021;SDS011;32779;52.264;6.154;2023-04-09T03:42:21;37.80;;;24.42;;
47021;SDS011;32779;52.264;6.154;2023-04-09T03:44:46;36.13;;;23.15;;
47021;SDS011;32779;52.264;6.154;2023-04-09T03:47:12;38.13;;;23.55;;
47021;SDS011;32779;52.264;6.154;2023-04-09T03:49:37;38.22;;;23.77;;
47021;SDS011;32779;52.264;6.154;2023-04-09T03:52:03;37.85;;;22.92;;
47021;SDS011;32779;52.264;6.154;2023-04-09T03:54:30;37.35;;;23.27;;
47021;SDS011;32779;52.264;6.154;2023-04-09T03:56:56;38.47;;;23.17;;
47021;SDS011;32779;52.264;6.154;2023-04-09T03:59:22;38.15;;;23.50;;
47021;SDS011;32779;52.264;6.154;2023-04-09T04:01:48;39.22;;;23.98;;
47021;SDS011;32779;52.264;6.154;2023-04-09T04:04:14;35.90;;;23.95;;
47021;SDS011;32779;52.264;6.154;2023-04-09T04:06:39;34.65;;;22.65;;
47021;SDS011;32779;52.264;6.154;2023-04-09T04:09:05;35.63;;;23.35;;
47021;SDS011;32779;52.264;6.154;2023-04-09T04:11:31;35.95;;;23.45;;
47021;SDS011;32779;52.264;6.154;2023-04-09T04:13:56;36.58;;;22.80;;
47021;SDS011;32779;52.264;6.154;2023-04-09T04:16:22;35.97;;;23.80;;
47021;SDS011;32779;52.264;6.154;2023-04-09T04:18:48;37.50;;;22.67;;
47021;SDS011;32779;52.264;6.154;2023-04-09T04:21:14;35.03;;;22.80;;
47021;SDS011;32779;52.264;6.154;2023-04-09T04:23:40;36.00;;;23.00;;
47021;SDS011;32779;52.264;6.154;2023-04-09T04:26:09;35.00;;;22.60;;
47021;SDS011;32779;52.264;6.154;2023-04-09T04:28:35;31.33;;;21.52;;
47021;SDS011;32779;52.264;6.154;2023-04-09T04:31:01;36.38;;;23.38;;
47021;SDS011;32779;52.264;6.154;2023-04-09T04:33:30;39.90;;;24.38;;
47021;SDS011;32779;52.264;6.154;2023-04-09T04:36:06;43.50;;;23.70;;
47021;SDS011;32779;52.264;6.154;2023-04-09T04:40:59;38.30;;;23.48;;
47021;SDS011;32779;52.264;6.154;2023-04-09T04:43:24;34.15;;;22.08;;
47021;SDS011;32779;52.264;6.154;2023-04-09T04:45:50;38.00;;;23.00;;
47021;SDS011;32779;52.264;6.154;2023-04-09T04:48:16;35.47;;;22.50;;
47021;SDS011;32779;52.264;6.154;2023-04-09T04:50:41;37.53;;;23.83;;
47021;SDS011;32779;52.264;6.154;2023-04-09T04:53:07;36.22;;;22.65;;
47021;SDS011;32779;52.264;6.154;2023-04-09T04:55:36;37.30;;;22.42;;
47021;SDS011;32779;52.264;6.154;2023-04-09T04:58:03;33.17;;;21.25;;
47021;SDS011;32779;52.264;6.154;2023-04-09T05:00:29;31.00;;;20.67;;
47021;SDS011;32779;52.264;6.154;2023-04-09T05:02:54;36.83;;;21.77;;
47021;SDS011;32779;52.264;6.154;2023-04-09T05:05:20;35.88;;;21.83;;
47021;SDS011;32779;52.264;6.154;2023-04-09T05:07:46;37.00;;;24.00;;
47021;SDS011;32779;52.264;6.154;2023-04-09T05:10:11;37.33;;;22.60;;
47021;SDS011;32779;52.264;6.154;2023-04-09T05:12:37;36.17;;;22.33;;
47021;SDS011;32779;52.264;6.154;2023-04-09T05:15:03;34.75;;;22.38;;
47021;SDS011;32779;52.264;6.154;2023-04-09T05:17:29;35.72;;;23.30;;
47021;SDS011;32779;52.264;6.154;2023-04-09T05:19:54;35.60;;;22.80;;
47021;SDS011;32779;52.264;6.154;2023-04-09T05:22:21;37.90;;;23.27;;
47021;SDS011;32779;52.264;6.154;2023-04-09T05:24:47;36.30;;;23.38;;
47021;SDS011;32779;52.264;6.154;2023-04-09T05:27:13;41.38;;;24.45;;
47021;SDS011;32779;52.264;6.154;2023-04-09T05:29:39;38.55;;;23.83;;
47021;SDS011;32779;52.264;6.154;2023-04-09T05:32:04;42.65;;;23.45;;
47021;SDS011;32779;52.264;6.154;2023-04-09T05:34:30;36.22;;;23.23;;
47021;SDS011;32779;52.264;6.154;2023-04-09T05:36:56;39.85;;;24.55;;
47021;SDS011;32779;52.264;6.154;2023-04-09T05:39:22;38.55;;;23.38;;
47021;SDS011;32779;52.264;6.154;2023-04-09T05:41:47;38.85;;;24.63;;
47021;SDS011;32779;52.264;6.154;2023-04-09T05:44:13;38.88;;;24.17;;
47021;SDS011;32779;52.264;6.154;2023-04-09T05:46:39;43.03;;;24.75;;
47021;SDS011;32779;52.264;6.154;2023-04-09T05:49:05;38.55;;;24.15;;
47021;SDS011;32779;52.264;6.154;2023-04-09T05:51:31;37.20;;;23.98;;
47021;SDS011;32779;52.264;6.154;2023-04-09T05:53:57;38.30;;;24.10;;
47021;SDS011;32779;52.264;6.154;2023-04-09T05:56:23;36.17;;;22.05;;
47021;SDS011;32779;52.264;6.154;2023-04-09T05:58:50;36.08;;;22.27;;
47021;SDS011;32779;52.264;6.154;2023-04-09T06:01:15;38.80;;;23.45;;
47021;SDS011;32779;52.264;6.154;2023-04-09T06:03:42;37.88;;;24.38;;
47021;SDS011;32779;52.264;6.154;2023-04-09T06:06:07;34.55;;;23.13;;
47021;SDS011;32779;52.264;6.154;2023-04-09T06:08:33;40.65;;;24.63;;
47021;SDS011;32779;52.264;6.154;2023-04-09T06:10:58;37.30;;;23.25;;
47021;SDS011;32779;52.264;6.154;2023-04-09T06:13:24;37.17;;;23.77;;
47021;SDS011;32779;52.264;6.154;2023-04-09T06:15:50;37.60;;;23.67;;
47021;SDS011;32779;52.264;6.154;2023-04-09T06:18:16;36.83;;;22.83;;
47021;SDS011;32779;52.264;6.154;2023-04-09T06:20:41;37.30;;;22.77;;
47021;SDS011;32779;52.264;6.154;2023-04-09T06:23:07;37.53;;;22.50;;
47021;SDS011;32779;52.264;6.154;2023-04-09T06:25:34;38.22;;;23.15;;
47021;SDS011;32779;52.264;6.154;2023-04-09T06:28:00;34.38;;;22.48;;
47021;SDS011;32779;52.264;6.154;2023-04-09T06:30:27;40.33;;;24.50;;
47021;SDS011;32779;52.264;6.154;2023-04-09T06:32:53;36.72;;;22.58;;
47021;SDS011;32779;52.264;6.154;2023-04-09T06:35:18;39.35;;;23.23;;
47021;SDS011;32779;52.264;6.154;2023-04-09T06:37:44;38.33;;;23.55;;
47021;SDS011;32779;52.264;6.154;2023-04-09T06:40:10;40.67;;;24.45;;
47021;SDS011;32779;52.264;6.154;2023-04-09T06:42:36;38.55;;;24.38;;
47021;SDS011;32779;52.264;6.154;2023-04-09T06:45:02;37.20;;;23.50;;
47021;SDS011;32779;52.264;6.154;2023-04-09T06:47:32;37.47;;;23.05;;
47021;SDS011;32779;52.264;6.154;2023-04-09T06:49:59;38.83;;;22.30;;
47021;SDS011;32779;52.264;6.154;2023-04-09T06:52:24;37.30;;;23.30;;
47021;SDS011;32779;52.264;6.154;2023-04-09T06:54:50;33.97;;;22.77;;
47021;SDS011;32779;52.264;6.154;2023-04-09T06:57:16;36.33;;;21.98;;
47021;SDS011;32779;52.264;6.154;2023-04-09T06:59:41;35.28;;;21.73;;
47021;SDS011;32779;52.264;6.154;2023-04-09T07:02:07;41.03;;;23.73;;
47021;SDS011;32779;52.264;6.154;2023-04-09T07:06:58;38.70;;;23.00;;
47021;SDS011;32779;52.264;6.154;2023-04-09T07:11:50;39.80;;;23.52;;
47021;SDS011;32779;52.264;6.154;2023-04-09T07:14:16;39.90;;;23.30;;
47021;SDS011;32779;52.264;6.154;2023-04-09T07:16:41;34.55;;;22.38;;
47021;SDS011;32779;52.264;6.154;2023-04-09T07:19:08;36.65;;;22.88;;
47021;SDS011;32779;52.264;6.154;2023-04-09T07:21:33;33.00;;;21.10;;
47021;SDS011;32779;52.264;6.154;2023-04-09T07:23:59;37.33;;;21.88;;
47021;SDS011;32779;52.264;6.154;2023-04-09T07:26:25;36.72;;;22.38;;
47021;SDS011;32779;52.264;6.154;2023-04-09T07:28:50;37.25;;;21.85;;
47021;SDS011;32779;52.264;6.154;2023-04-09T07:31:16;36.92;;;22.80;;
47021;SDS011;32779;52.264;6.154;2023-04-09T07:33:42;38.30;;;23.88;;
47021;SDS011;32779;52.264;6.154;2023-04-09T07:36:07;33.58;;;22.17;;
47021;SDS011;32779;52.264;6.154;2023-04-09T07:38:33;41.53;;;22.67;;
47021;SDS011;32779;52.264;6.154;2023-04-09T07:40:58;34.92;;;22.27;;
47021;SDS011;32779;52.264;6.154;2023-04-09T07:43:25;37.28;;;23.42;;
47021;SDS011;32779;52.264;6.154;2023-04-09T07:45:50;41.95;;;23.52;;
47021;SDS011;32779;52.264;6.154;2023-04-09T07:48:16;32.55;;;22.15;;
47021;SDS011;32779;52.264;6.154;2023-04-09T07:50:42;40.13;;;23.13;;
47021;SDS011;32779;52.264;6.154;2023-04-09T07:53:09;37.50;;;22.13;;
47021;SDS011;32779;52.264;6.154;2023-04-09T07:55:35;38.38;;;24.05;;
47021;SDS011;32779;52.264;6.154;2023-04-09T07:58:01;38.38;;;23.08;;
47021;SDS011;32779;52.264;6.154;2023-04-09T08:00:28;36.22;;;23.45;;
47021;SDS011;32779;52.264;6.154;2023-04-09T08:02:54;38.35;;;23.30;;
47021;SDS011;32779;52.264;6.154;2023-04-09T08:05:21;37.88;;;23.23;;
47021;SDS011;32779;52.264;6.154;2023-04-09T08:07:47;36.75;;;22.48;;
47021;SDS011;32779;52.264;6.154;2023-04-09T08:10:14;36.55;;;22.63;;
47021;SDS011;32779;52.264;6.154;2023-04-09T08:12:40;36.85;;;23.02;;
47021;SDS011;32779;52.264;6.154;2023-04-09T08:15:06;35.22;;;21.33;;
47021;SDS011;32779;52.264;6.154;2023-04-09T08:17:32;35.90;;;22.83;;
47021;SDS011;32779;52.264;6.154;2023-04-09T08:19:58;35.88;;;23.45;;
47021;SDS011;32779;52.264;6.154;2023-04-09T08:22:23;33.25;;;22.33;;
47021;SDS011;32779;52.264;6.154;2023-04-09T08:24:52;35.45;;;23.13;;
47021;SDS011;32779;52.264;6.154;2023-04-09T08:27:19;36.40;;;22.75;;
47021;SDS011;32779;52.264;6.154;2023-04-09T08:29:45;36.17;;;22.58;;
47021;SDS011;32779;52.264;6.154;2023-04-09T08:32:11;31.92;;;21.55;;
47021;SDS011;32779;52.264;6.154;2023-04-09T08:34:37;37.83;;;23.30;;
47021;SDS011;32779;52.264;6.154;2023-04-09T08:37:02;35.45;;;22.98;;
47021;SDS011;32779;52.264;6.154;2023-04-09T08:39:28;33.40;;;21.35;;
47021;SDS011;32779;52.264;6.154;2023-04-09T08:41:53;38.08;;;22.33;;
47021;SDS011;32779;52.264;6.154;2023-04-09T08:44:26;35.08;;;22.27;;
47021;SDS011;32779;52.264;6.154;2023-04-09T08:46:53;34.53;;;22.35;;
47021;SDS011;32779;52.264;6.154;2023-04-09T08:49:19;33.05;;;21.85;;
47021;SDS011;32779;52.264;6.154;2023-04-09T08:54:13;27.73;;;18.45;;
47021;SDS011;32779;52.264;6.154;2023-04-09T08:56:41;25.73;;;17.58;;
47021;SDS011;32779;52.264;6.154;2023-04-09T08:59:08;30.63;;;19.30;;
47021;SDS011;32779;52.264;6.154;2023-04-09T09:01:33;28.48;;;17.60;;
47021;SDS011;32779;52.264;6.154;2023-04-09T09:04:00;28.88;;;18.88;;
47021;SDS011;32779;52.264;6.154;2023-04-09T09:06:35;28.83;;;19.48;;
47021;SDS011;32779;52.264;6.154;2023-04-09T09:09:08;31.05;;;19.83;;
47021;SDS011;32779;52.264;6.154;2023-04-09T09:11:38;29.15;;;19.35;;
47021;SDS011;32779;52.264;6.154;2023-04-09T09:14:15;26.70;;;18.92;;
47021;SDS011;32779;52.264;6.154;2023-04-09T09:16:43;28.48;;;18.85;;
47021;SDS011;32779;52.264;6.154;2023-04-09T09:19:29;28.50;;;18.95;;
47021;SDS011;32779;52.264;6.154;2023-04-09T09:22:02;28.83;;;19.33;;
47021;SDS011;32779;52.264;6.154;2023-04-09T09:24:31;29.95;;;18.48;;
47021;SDS011;32779;52.264;6.154;2023-04-09T09:26:58;28.83;;;18.55;;
47021;SDS011;32779;52.264;6.154;2023-04-09T09:31:51;26.02;;;17.80;;
47021;SDS011;32779;52.264;6.154;2023-04-09T09:34:18;29.92;;;18.30;;
47021;SDS011;32779;52.264;6.154;2023-04-09T09:36:45;28.77;;;19.95;;
47021;SDS011;32779;52.264;6.154;2023-04-09T09:39:12;28.25;;;19.10;;
47021;SDS011;32779;52.264;6.154;2023-04-09T09:41:38;28.20;;;18.35;;
47021;SDS011;32779;52.264;6.154;2023-04-09T09:44:06;29.92;;;19.63;;
47021;SDS011;32779;52.264;6.154;2023-04-09T09:46:37;27.92;;;18.02;;
47021;SDS011;32779;52.264;6.154;2023-04-09T09:49:04;26.90;;;17.75;;
47021;SDS011;32779;52.264;6.154;2023-04-09T09:51:31;24.55;;;16.17;;
47021;SDS011;32779;52.264;6.154;2023-04-09T09:53:58;25.92;;;17.30;;
47021;SDS011;32779;52.264;6.154;2023-04-09T09:56:24;26.67;;;17.08;;
47021;SDS011;32779;52.264;6.154;2023-04-09T10:01:42;24.50;;;16.17;;
47021;SDS011;32779;52.264;6.154;2023-04-09T10:04:11;21.48;;;15.68;;
47021;SDS011;32779;52.264;6.154;2023-04-09T10:06:41;21.73;;;15.63;;
47021;SDS011;32779;52.264;6.154;2023-04-09T10:09:11;24.48;;;15.65;;
47021;SDS011;32779;52.264;6.154;2023-04-09T10:14:06;20.80;;;13.82;;
47021;SDS011;32779;52.264;6.154;2023-04-09T10:18:58;20.17;;;14.02;;
47021;SDS011;32779;52.264;6.154;2023-04-09T10:24:29;19.38;;;13.13;;
47021;SDS011;32779;52.264;6.154;2023-04-09T10:27:07;21.13;;;14.63;;
47021;SDS011;32779;52.264;6.154;2023-04-09T10:29:34;21.83;;;14.50;;
47021;SDS011;32779;52.264;6.154;2023-04-09T10:32:19;23.42;;;15.85;;
47021;SDS011;32779;52.264;6.154;2023-04-09T10:34:46;23.52;;;15.63;;
47021;SDS011;32779;52.264;6.154;2023-04-09T10:37:15;20.67;;;14.75;;
47021;SDS011;32779;52.264;6.154;2023-04-09T10:39:48;21.05;;;14.25;;
47021;SDS011;32779;52.264;6.154;2023-04-09T10:42:18;26.25;;;15.25;;
47021;SDS011;32779;52.264;6.154;2023-04-09T10:45:13;20.05;;;14.43;;
47021;SDS011;32779;52.264;6.154;2023-04-09T10:47:36;20.73;;;14.18;;
47021;SDS011;32779;52.264;6.154;2023-04-09T10:50:16;20.52;;;13.60;;
47021;SDS011;32779;52.264;6.154;2023-04-09T10:52:51;19.63;;;13.98;;
47021;SDS011;32779;52.264;6.154;2023-04-09T10:58:05;21.30;;;14.45;;
47021;SDS011;32779;52.264;6.154;2023-04-09T11:00:32;22.10;;;12.95;;
47021;SDS011;32779;52.264;6.154;2023-04-09T11:08:02;20.52;;;13.30;;
47021;SDS011;32779;52.264;6.154;2023-04-09T11:10:30;16.63;;;11.70;;
47021;SDS011;32779;52.264;6.154;2023-04-09T11:12:57;15.77;;;11.55;;
47021;SDS011;32779;52.264;6.154;2023-04-09T11:15:23;15.63;;;11.00;;
47021;SDS011;32779;52.264;6.154;2023-04-09T11:17:48;15.40;;;11.05;;
47021;SDS011;32779;52.264;6.154;2023-04-09T11:22:41;16.88;;;11.68;;
47021;SDS011;32779;52.264;6.154;2023-04-09T11:25:07;13.90;;;10.27;;
47021;SDS011;32779;52.264;6.154;2023-04-09T11:27:35;16.30;;;10.80;;
47021;SDS011;32779;52.264;6.154;2023-04-09T11:30:03;15.13;;;10.40;;
47021;SDS011;32779;52.264;6.154;2023-04-09T11:32:29;15.65;;;10.23;;
47021;SDS011;32779;52.264;6.154;2023-04-09T11:34:55;12.75;;;9.65;;
47021;SDS011;32779;52.264;6.154;2023-04-09T11:37:21;14.65;;;10.68;;
47021;SDS011;32779;52.264;6.154;2023-04-09T11:39:47;15.18;;;10.27;;
47021;SDS011;32779;52.264;6.154;2023-04-09T11:42:15;14.73;;;10.55;;
47021;SDS011;32779;52.264;6.154;2023-04-09T11:44:42;14.77;;;10.27;;
47021;SDS011;32779;52.264;6.154;2023-04-09T11:47:09;13.93;;;10.43;;
47021;SDS011;32779;52.264;6.154;2023-04-09T11:49:35;17.70;;;11.40;;
47021;SDS011;32779;52.264;6.154;2023-04-09T11:52:01;15.82;;;11.30;;
47021;SDS011;32779;52.264;6.154;2023-04-09T11:54:31;15.93;;;10.93;;
47021;SDS011;32779;52.264;6.154;2023-04-09T11:57:03;14.70;;;10.18;;
47021;SDS011;32779;52.264;6.154;2023-04-09T11:59:29;14.85;;;11.00;;
47021;SDS011;32779;52.264;6.154;2023-04-09T12:01:58;15.13;;;10.75;;
47021;SDS011;32779;52.264;6.154;2023-04-09T12:04:24;13.95;;;10.02;;
47021;SDS011;32779;52.264;6.154;2023-04-09T12:06:49;12.95;;;10.52;;
47021;SDS011;32779;52.264;6.154;2023-04-09T12:11:42;19.08;;;10.60;;
47021;SDS011;32779;52.264;6.154;2023-04-09T12:14:15;16.35;;;10.50;;
47021;SDS011;32779;52.264;6.154;2023-04-09T12:16:42;14.75;;;9.68;;
47021;SDS011;32779;52.264;6.154;2023-04-09T12:19:09;15.43;;;9.93;;
47021;SDS011;32779;52.264;6.154;2023-04-09T12:21:49;12.38;;;9.35;;
47021;SDS011;32779;52.264;6.154;2023-04-09T12:24:19;12.93;;;10.13;;
47021;SDS011;32779;52.264;6.154;2023-04-09T12:26:47;12.88;;;9.70;;
47021;SDS011;32779;52.264;6.154;2023-04-09T12:29:13;14.93;;;9.40;;
47021;SDS011;32779;52.264;6.154;2023-04-09T12:31:41;12.27;;;9.80;;
47021;SDS011;32779;52.264;6.154;2023-04-09T12:34:07;13.40;;;8.77;;
47021;SDS011;32779;52.264;6.154;2023-04-09T12:36:32;14.00;;;8.93;;
47021;SDS011;32779;52.264;6.154;2023-04-09T12:38:58;14.48;;;8.95;;
47021;SDS011;32779;52.264;6.154;2023-04-09T12:41:24;13.10;;;8.75;;
47021;SDS011;32779;52.264;6.154;2023-04-09T12:46:18;11.35;;;8.38;;
47021;SDS011;32779;52.264;6.154;2023-04-09T12:48:44;11.90;;;8.85;;
47021;SDS011;32779;52.264;6.154;2023-04-09T12:53:36;11.57;;;8.55;;
47021;SDS011;32779;52.264;6.154;2023-04-09T12:56:02;11.10;;;8.02;;
47021;SDS011;32779;52.264;6.154;2023-04-09T12:58:28;12.27;;;8.75;;
47021;SDS011;32779;52.264;6.154;2023-04-09T13:00:55;12.25;;;8.90;;
47021;SDS011;32779;52.264;6.154;2023-04-09T13:05:47;14.32;;;9.15;;
47021;SDS011;32779;52.264;6.154;2023-04-09T13:10:38;11.00;;;8.60;;
47021;SDS011;32779;52.264;6.154;2023-04-09T13:15:35;12.27;;;8.35;;
47021;SDS011;32779;52.264;6.154;2023-04-09T13:18:07;10.65;;;8.23;;
47021;SDS011;32779;52.264;6.154;2023-04-09T13:20:33;12.65;;;8.43;;
47021;SDS011;32779;52.264;6.154;2023-04-09T13:22:59;12.65;;;8.38;;
47021;SDS011;32779;52.264;6.154;2023-04-09T13:27:50;12.65;;;8.98;;
47021;SDS011;32779;52.264;6.154;2023-04-09T13:32:41;11.70;;;8.30;;
47021;SDS011;32779;52.264;6.154;2023-04-09T13:37:34;11.10;;;8.63;;
47021;SDS011;32779;52.264;6.154;2023-04-09T13:39:59;12.13;;;8.48;;
47021;SDS011;32779;52.264;6.154;2023-04-09T13:42:25;10.50;;;7.57;;
47021;SDS011;32779;52.264;6.154;2023-04-09T13:44:51;11.35;;;8.43;;
47021;SDS011;32779;52.264;6.154;2023-04-09T13:47:17;12.65;;;9.07;;
47021;SDS011;32779;52.264;6.154;2023-04-09T13:49:43;13.48;;;8.68;;
47021;SDS011;32779;52.264;6.154;2023-04-09T13:54:35;11.40;;;8.32;;
47021;SDS011;32779;52.264;6.154;2023-04-09T13:57:01;11.60;;;8.98;;
47021;SDS011;32779;52.264;6.154;2023-04-09T13:59:26;11.80;;;8.23;;
47021;SDS011;32779;52.264;6.154;2023-04-09T14:01:52;11.43;;;9.02;;
47021;SDS011;32779;52.264;6.154;2023-04-09T14:06:43;10.98;;;8.20;;
47021;SDS011;32779;52.264;6.154;2023-04-09T14:09:09;11.80;;;8.20;;
47021;SDS011;32779;52.264;6.154;2023-04-09T14:11:35;9.75;;;7.70;;
47021;SDS011;32779;52.264;6.154;2023-04-09T14:14:01;10.80;;;8.10;;
47021;SDS011;32779;52.264;6.154;2023-04-09T14:18:54;12.40;;;9.55;;
47021;SDS011;32779;52.264;6.154;2023-04-09T14:23:45;12.77;;;8.95;;
47021;SDS011;32779;52.264;6.154;2023-04-09T14:28:37;11.13;;;8.88;;
47021;SDS011;32779;52.264;6.154;2023-04-09T14:33:28;11.57;;;7.97;;
47021;SDS011;32779;52.264;6.154;2023-04-09T14:38:19;11.98;;;8.32;;
47021;SDS011;32779;52.264;6.154;2023-04-09T14:43:10;11.02;;;8.50;;
47021;SDS011;32779;52.264;6.154;2023-04-09T14:48:01;10.48;;;8.40;;
47021;SDS011;32779;52.264;6.154;2023-04-09T14:50:29;10.77;;;7.90;;
47021;SDS011;32779;52.264;6.154;2023-04-09T14:52:56;10.75;;;7.75;;
47021;SDS011;32779;52.264;6.154;2023-04-09T14:55:21;11.18;;;8.25;;
47021;SDS011;32779;52.264;6.154;2023-04-09T14:57:49;11.13;;;8.75;;
47021;SDS011;32779;52.264;6.154;2023-04-09T15:00:15;11.00;;;7.90;;
47021;SDS011;32779;52.264;6.154;2023-04-09T15:05:06;11.57;;;7.70;;
47021;SDS011;32779;52.264;6.154;2023-04-09T15:07:32;12.20;;;8.45;;
47021;SDS011;32779;52.264;6.154;2023-04-09T15:09:58;12.77;;;9.77;;
47021;SDS011;32779;52.264;6.154;2023-04-09T15:14:50;12.48;;;8.68;;
47021;SDS011;32779;52.264;6.154;2023-04-09T15:19:41;10.35;;;7.75;;
47021;SDS011;32779;52.264;6.154;2023-04-09T15:22:07;11.60;;;7.28;;
47021;SDS011;32779;52.264;6.154;2023-04-09T15:24:32;11.52;;;8.52;;
47021;SDS011;32779;52.264;6.154;2023-04-09T15:29:23;11.07;;;8.05;;
47021;SDS011;32779;52.264;6.154;2023-04-09T15:34:16;12.43;;;8.98;;
47021;SDS011;32779;52.264;6.154;2023-04-09T15:39:08;10.35;;;8.20;;
47021;SDS011;32779;52.264;6.154;2023-04-09T15:41:34;10.35;;;7.45;;
47021;SDS011;32779;52.264;6.154;2023-04-09T15:44:00;9.40;;;7.60;;
47021;SDS011;32779;52.264;6.154;2023-04-09T15:48:51;10.57;;;7.53;;
47021;SDS011;32779;52.264;6.154;2023-04-09T15:53:42;9.23;;;7.03;;
47021;SDS011;32779;52.264;6.154;2023-04-09T15:56:08;9.13;;;6.88;;
47021;SDS011;32779;52.264;6.154;2023-04-09T15:58:35;9.55;;;7.45;;
47021;SDS011;32779;52.264;6.154;2023-04-09T16:01:07;11.43;;;7.68;;
47021;SDS011;32779;52.264;6.154;2023-04-09T16:03:33;9.75;;;7.22;;
47021;SDS011;32779;52.264;6.154;2023-04-09T16:06:04;10.10;;;6.95;;
47021;SDS011;32779;52.264;6.154;2023-04-09T16:08:33;9.75;;;7.55;;
47021;SDS011;32779;52.264;6.154;2023-04-09T16:10:59;10.77;;;7.72;;
47021;SDS011;32779;52.264;6.154;2023-04-09T16:13:25;9.70;;;7.20;;
47021;SDS011;32779;52.264;6.154;2023-04-09T16:18:17;8.63;;;6.90;;
47021;SDS011;32779;52.264;6.154;2023-04-09T16:20:42;8.68;;;7.10;;
47021;SDS011;32779;52.264;6.154;2023-04-09T16:23:08;9.52;;;7.18;;
47021;SDS011;32779;52.264;6.154;2023-04-09T16:27:59;9.98;;;7.47;;